sensor_id;sensor_type;location;lat;lon;timestamp;P1;durP1;ratioP1;P2;durP2;ratioP2
44516;SDS011;30223;17.182;-96.766;2022-08-21T00:02:27;2.65;;;1.83;;
44516;SDS011;30223;17.182;-96.766;2022-08-21T00:04:54;1.58;;;1.42;;
44516;SDS011;30223;17.182;-96.766;2022-08-21T00:07:20;2.00;;;1.55;;
44516;SDS011;30223;17.182;-96.766;2022-08-21T00:09:47;3.22;;;1.80;;
44516;SDS011;30223;17.182;-96.766;2022-08-21T00:12:14;3.00;;;1.92;;
44516;SDS011;30223;17.182;-96.766;2022-08-21T00:14:40;2.60;;;2.40;;
44516;SDS011;30223;17.182;-96.766;2022-08-21T00:17:07;2.08;;;1.65;;
44516;SDS011;30223;17.182;-96.766;2022-08-21T00:19:34;2.95;;;1.83;;
44516;SDS011;30223;17.182;-96.766;2022-08-21T00:22:00;1.58;;;1.40;;
44516;SDS011;30223;17.182;-96.766;2022-08-21T00:24:27;3.75;;;2.10;;
44516;SDS011;30223;17.182;-96.766;2022-08-21T00:26:54;2.83;;;1.48;;
44516;SDS011;30223;17.182;-96.766;2022-08-21T00:29:21;1.83;;;1.40;;
44516;SDS011;30223;17.182;-96.766;2022-08-21T00:31:47;2.58;;;1.83;;
44516;SDS011;30223;17.182;-96.766;2022-08-21T00:34:14;2.72;;;1.90;;
44516;SDS011;30223;17.182;-96.766;2022-08-21T00:36:40;1.80;;;1.65;;
44516;SDS011;30223;17.182;-96.766;2022-08-21T00:39:07;1.75;;;1.55;;
44516;SDS011;30223;17.182;-96.766;2022-08-21T00:41:35;1.88;;;1.60;;
44516;SDS011;30223;17.182;-96.766;2022-08-21T00:44:05;2.90;;;1.50;;
44516;SDS011;30223;17.182;-96.766;2022-08-21T00:46:34;4.55;;;1.95;;
44516;SDS011;30223;17.182;-96.766;2022-08-21T00:49:01;2.63;;;1.75;;
44516;SDS011;30223;17.182;-96.766;2022-08-21T00:51:35;3.15;;;1.65;;
44516;SDS011;30223;17.182;-96.766;2022-08-21T00:54:07;1.92;;;1.75;;
44516;SDS011;30223;17.182;-96.766;2022-08-21T00:56:35;1.65;;;1.55;;
44516;SDS011;30223;17.182;-96.766;2022-08-21T00:59:02;2.63;;;1.80;;
44516;SDS011;30223;17.182;-96.766;2022-08-21T01:01:29;2.38;;;1.77;;
44516;SDS011;30223;17.182;-96.766;2022-08-21T01:03:56;2.25;;;1.98;;
44516;SDS011;30223;17.182;-96.766;2022-08-21T01:06:22;3.70;;;2.33;;
44516;SDS011;30223;17.182;-96.766;2022-08-21T01:08:49;3.45;;;1.95;;
44516;SDS011;30223;17.182;-96.766;2022-08-21T01:11:16;2.08;;;1.58;;
44516;SDS011;30223;17.182;-96.766;2022-08-21T01:13:43;3.38;;;1.67;;
44516;SDS011;30223;17.182;-96.766;2022-08-21T01:16:12;2.33;;;1.80;;
44516;SDS011;30223;17.182;-96.766;2022-08-21T01:18:43;3.65;;;2.10;;
44516;SDS011;30223;17.182;-96.766;2022-08-21T01:21:14;4.50;;;2.15;;
44516;SDS011;30223;17.182;-96.766;2022-08-21T01:23:48;2.33;;;1.85;;
44516;SDS011;30223;17.182;-96.766;2022-08-21T01:26:20;3.22;;;2.08;;
44516;SDS011;30223;17.182;-96.766;2022-08-21T01:28:54;1.70;;;1.60;;
44516;SDS011;30223;17.182;-96.766;2022-08-21T01:31:31;3.90;;;2.28;;
44516;SDS011;30223;17.182;-96.766;2022-08-21T01:33:58;2.13;;;1.70;;
44516;SDS011;30223;17.182;-96.766;2022-08-21T01:36:25;2.88;;;1.92;;
44516;SDS011;30223;17.182;-96.766;2022-08-21T01:38:52;1.85;;;1.73;;
44516;SDS011;30223;17.182;-96.766;2022-08-21T01:41:19;3.03;;;2.00;;
44516;SDS011;30223;17.182;-96.766;2022-08-21T01:43:45;4.88;;;1.98;;
44516;SDS011;30223;17.182;-96.766;2022-08-21T01:46:12;2.55;;;2.00;;
44516;SDS011;30223;17.182;-96.766;2022-08-21T01:48:39;2.47;;;2.28;;
44516;SDS011;30223;17.182;-96.766;2022-08-21T01:51:07;2.47;;;1.98;;
44516;SDS011;30223;17.182;-96.766;2022-08-21T01:53:34;4.05;;;2.20;;
44516;SDS011;30223;17.182;-96.766;2022-08-21T01:56:06;1.90;;;1.58;;
44516;SDS011;30223;17.182;-96.766;2022-08-21T01:58:35;3.47;;;1.90;;
44516;SDS011;30223;17.182;-96.766;2022-08-21T02:01:02;3.33;;;1.77;;
44516;SDS011;30223;17.182;-96.766;2022-08-21T02:03:29;2.17;;;1.98;;
44516;SDS011;30223;17.182;-96.766;2022-08-21T02:05:56;4.85;;;2.20;;
44516;SDS011;30223;17.182;-96.766;2022-08-21T02:08:23;3.42;;;3.10;;
44516;SDS011;30223;17.182;-96.766;2022-08-21T02:10:50;3.80;;;1.98;;
44516;SDS011;30223;17.182;-96.766;2022-08-21T02:13:18;4.10;;;1.88;;
44516;SDS011;30223;17.182;-96.766;2022-08-21T02:15:45;2.80;;;2.20;;
44516;SDS011;30223;17.182;-96.766;2022-08-21T02:18:12;3.90;;;2.40;;
44516;SDS011;30223;17.182;-96.766;2022-08-21T02:20:42;2.60;;;1.98;;
44516;SDS011;30223;17.182;-96.766;2022-08-21T02:23:11;3.85;;;2.25;;
44516;SDS011;30223;17.182;-96.766;2022-08-21T02:25:38;2.58;;;2.00;;
44516;SDS011;30223;17.182;-96.766;2022-08-21T02:28:07;3.58;;;2.17;;
44516;SDS011;30223;17.182;-96.766;2022-08-21T02:30:41;2.35;;;1.60;;
44516;SDS011;30223;17.182;-96.766;2022-08-21T02:33:11;2.50;;;1.80;;
44516;SDS011;30223;17.182;-96.766;2022-08-21T02:35:39;2.53;;;1.67;;
44516;SDS011;30223;17.182;-96.766;2022-08-21T02:38:09;2.53;;;1.60;;
44516;SDS011;30223;17.182;-96.766;2022-08-21T02:40:38;2.15;;;1.52;;
44516;SDS011;30223;17.182;-96.766;2022-08-21T02:45:34;2.97;;;2.05;;
44516;SDS011;30223;17.182;-96.766;2022-08-21T02:48:03;2.17;;;1.53;;
44516;SDS011;30223;17.182;-96.766;2022-08-21T02:50:33;2.65;;;2.10;;
44516;SDS011;30223;17.182;-96.766;2022-08-21T02:53:03;2.88;;;2.30;;
44516;SDS011;30223;17.182;-96.766;2022-08-21T02:55:32;3.53;;;2.00;;
44516;SDS011;30223;17.182;-96.766;2022-08-21T03:00:28;2.75;;;2.03;;
44516;SDS011;30223;17.182;-96.766;2022-08-21T03:02:56;2.40;;;1.80;;
44516;SDS011;30223;17.182;-96.766;2022-08-21T03:05:24;3.40;;;2.20;;
44516;SDS011;30223;17.182;-96.766;2022-08-21T03:10:19;4.38;;;1.77;;
44516;SDS011;30223;17.182;-96.766;2022-08-21T03:12:48;2.70;;;2.20;;
44516;SDS011;30223;17.182;-96.766;2022-08-21T03:15:16;3.53;;;2.63;;
44516;SDS011;30223;17.182;-96.766;2022-08-21T03:17:45;2.40;;;1.83;;
44516;SDS011;30223;17.182;-96.766;2022-08-21T03:20:12;4.13;;;2.25;;
44516;SDS011;30223;17.182;-96.766;2022-08-21T03:22:41;3.17;;;2.58;;
44516;SDS011;30223;17.182;-96.766;2022-08-21T03:25:08;6.15;;;2.85;;
44516;SDS011;30223;17.182;-96.766;2022-08-21T03:27:35;3.47;;;1.98;;
44516;SDS011;30223;17.182;-96.766;2022-08-21T03:30:05;2.30;;;2.10;;
44516;SDS011;30223;17.182;-96.766;2022-08-21T03:32:33;4.22;;;2.53;;
44516;SDS011;30223;17.182;-96.766;2022-08-21T03:35:01;2.85;;;2.28;;
44516;SDS011;30223;17.182;-96.766;2022-08-21T03:37:29;5.57;;;2.10;;
44516;SDS011;30223;17.182;-96.766;2022-08-21T03:39:56;4.00;;;2.47;;
44516;SDS011;30223;17.182;-96.766;2022-08-21T03:42:22;3.60;;;3.25;;
44516;SDS011;30223;17.182;-96.766;2022-08-21T03:44:49;3.20;;;2.60;;
44516;SDS011;30223;17.182;-96.766;2022-08-21T03:47:16;3.53;;;2.55;;
44516;SDS011;30223;17.182;-96.766;2022-08-21T03:49:43;3.03;;;1.92;;
44516;SDS011;30223;17.182;-96.766;2022-08-21T03:52:10;3.08;;;2.60;;
44516;SDS011;30223;17.182;-96.766;2022-08-21T03:54:36;3.17;;;2.70;;
44516;SDS011;30223;17.182;-96.766;2022-08-21T03:57:05;5.10;;;3.03;;
44516;SDS011;30223;17.182;-96.766;2022-08-21T03:59:31;4.05;;;3.25;;
44516;SDS011;30223;17.182;-96.766;2022-08-21T04:02:00;5.32;;;2.50;;
44516;SDS011;30223;17.182;-96.766;2022-08-21T04:04:29;5.40;;;2.70;;
44516;SDS011;30223;17.182;-96.766;2022-08-21T04:06:56;7.00;;;2.95;;
44516;SDS011;30223;17.182;-96.766;2022-08-21T04:09:24;3.42;;;2.33;;
44516;SDS011;30223;17.182;-96.766;2022-08-21T04:11:51;5.25;;;3.05;;
44516;SDS011;30223;17.182;-96.766;2022-08-21T04:14:18;4.63;;;2.67;;
44516;SDS011;30223;17.182;-96.766;2022-08-21T04:16:45;4.35;;;2.53;;
44516;SDS011;30223;17.182;-96.766;2022-08-21T04:19:12;4.00;;;2.97;;
44516;SDS011;30223;17.182;-96.766;2022-08-21T04:21:39;5.10;;;3.42;;
44516;SDS011;30223;17.182;-96.766;2022-08-21T04:24:06;5.07;;;3.05;;
44516;SDS011;30223;17.182;-96.766;2022-08-21T04:26:35;4.57;;;3.17;;
44516;SDS011;30223;17.182;-96.766;2022-08-21T04:29:03;5.18;;;3.17;;
44516;SDS011;30223;17.182;-96.766;2022-08-21T04:31:34;4.97;;;2.70;;
44516;SDS011;30223;17.182;-96.766;2022-08-21T04:34:04;3.75;;;2.83;;
44516;SDS011;30223;17.182;-96.766;2022-08-21T04:36:31;6.07;;;2.50;;
44516;SDS011;30223;17.182;-96.766;2022-08-21T04:38:58;4.20;;;2.63;;
44516;SDS011;30223;17.182;-96.766;2022-08-21T04:41:25;3.72;;;2.72;;
44516;SDS011;30223;17.182;-96.766;2022-08-21T04:43:52;4.07;;;3.00;;
44516;SDS011;30223;17.182;-96.766;2022-08-21T04:46:20;5.00;;;3.58;;
44516;SDS011;30223;17.182;-96.766;2022-08-21T04:48:47;4.03;;;2.92;;
44516;SDS011;30223;17.182;-96.766;2022-08-21T04:51:16;4.07;;;2.92;;
44516;SDS011;30223;17.182;-96.766;2022-08-21T04:53:58;5.20;;;3.45;;
44516;SDS011;30223;17.182;-96.766;2022-08-21T04:56:34;5.32;;;3.10;;
44516;SDS011;30223;17.182;-96.766;2022-08-21T04:59:04;8.05;;;3.97;;
44516;SDS011;30223;17.182;-96.766;2022-08-21T05:01:37;3.67;;;2.72;;
44516;SDS011;30223;17.182;-96.766;2022-08-21T05:06:35;3.72;;;3.25;;
44516;SDS011;30223;17.182;-96.766;2022-08-21T05:09:04;4.78;;;2.85;;
44516;SDS011;30223;17.182;-96.766;2022-08-21T05:11:31;3.47;;;3.05;;
44516;SDS011;30223;17.182;-96.766;2022-08-21T05:13:58;5.03;;;3.22;;
44516;SDS011;30223;17.182;-96.766;2022-08-21T05:16:25;5.65;;;3.20;;
44516;SDS011;30223;17.182;-96.766;2022-08-21T05:18:51;4.07;;;3.45;;
44516;SDS011;30223;17.182;-96.766;2022-08-21T05:21:18;3.65;;;2.40;;
44516;SDS011;30223;17.182;-96.766;2022-08-21T05:23:46;5.40;;;3.08;;
44516;SDS011;30223;17.182;-96.766;2022-08-21T05:26:12;4.75;;;3.08;;
44516;SDS011;30223;17.182;-96.766;2022-08-21T05:28:39;5.50;;;2.65;;
44516;SDS011;30223;17.182;-96.766;2022-08-21T05:31:05;3.65;;;2.67;;
44516;SDS011;30223;17.182;-96.766;2022-08-21T05:33:32;3.97;;;2.53;;
44516;SDS011;30223;17.182;-96.766;2022-08-21T05:35:58;4.40;;;2.70;;
44516;SDS011;30223;17.182;-96.766;2022-08-21T05:38:25;3.92;;;2.97;;
44516;SDS011;30223;17.182;-96.766;2022-08-21T05:40:53;5.73;;;3.50;;
44516;SDS011;30223;17.182;-96.766;2022-08-21T05:43:20;6.05;;;2.97;;
44516;SDS011;30223;17.182;-96.766;2022-08-21T05:45:47;3.38;;;2.75;;
44516;SDS011;30223;17.182;-96.766;2022-08-21T05:48:15;5.32;;;2.80;;
44516;SDS011;30223;17.182;-96.766;2022-08-21T05:50:44;5.07;;;3.13;;
44516;SDS011;30223;17.182;-96.766;2022-08-21T05:53:11;5.63;;;2.88;;
44516;SDS011;30223;17.182;-96.766;2022-08-21T05:55:39;4.13;;;3.28;;
44516;SDS011;30223;17.182;-96.766;2022-08-21T05:58:06;4.95;;;2.75;;
44516;SDS011;30223;17.182;-96.766;2022-08-21T06:00:33;5.13;;;2.30;;
44516;SDS011;30223;17.182;-96.766;2022-08-21T06:03:00;4.85;;;2.85;;
44516;SDS011;30223;17.182;-96.766;2022-08-21T06:05:26;7.63;;;3.20;;
44516;SDS011;30223;17.182;-96.766;2022-08-21T06:07:53;3.97;;;3.13;;
44516;SDS011;30223;17.182;-96.766;2022-08-21T06:10:19;4.40;;;3.10;;
44516;SDS011;30223;17.182;-96.766;2022-08-21T06:12:46;3.70;;;2.75;;
44516;SDS011;30223;17.182;-96.766;2022-08-21T06:15:19;4.28;;;2.80;;
44516;SDS011;30223;17.182;-96.766;2022-08-21T06:17:46;3.42;;;2.85;;
44516;SDS011;30223;17.182;-96.766;2022-08-21T06:20:12;3.40;;;2.90;;
44516;SDS011;30223;17.182;-96.766;2022-08-21T06:22:39;5.70;;;3.28;;
44516;SDS011;30223;17.182;-96.766;2022-08-21T06:25:06;5.93;;;3.28;;
44516;SDS011;30223;17.182;-96.766;2022-08-21T06:27:34;8.73;;;3.60;;
44516;SDS011;30223;17.182;-96.766;2022-08-21T06:30:01;4.30;;;2.78;;
44516;SDS011;30223;17.182;-96.766;2022-08-21T06:32:28;4.75;;;3.00;;
44516;SDS011;30223;17.182;-96.766;2022-08-21T06:34:55;3.42;;;2.85;;
44516;SDS011;30223;17.182;-96.766;2022-08-21T06:37:21;4.10;;;2.25;;
44516;SDS011;30223;17.182;-96.766;2022-08-21T06:39:48;4.25;;;2.45;;
44516;SDS011;30223;17.182;-96.766;2022-08-21T06:42:15;6.07;;;3.20;;
44516;SDS011;30223;17.182;-96.766;2022-08-21T06:44:42;6.57;;;3.35;;
44516;SDS011;30223;17.182;-96.766;2022-08-21T06:47:09;2.75;;;2.08;;
44516;SDS011;30223;17.182;-96.766;2022-08-21T06:49:36;6.22;;;2.33;;
44516;SDS011;30223;17.182;-96.766;2022-08-21T06:52:03;3.20;;;2.30;;
44516;SDS011;30223;17.182;-96.766;2022-08-21T06:54:33;5.00;;;2.67;;
44516;SDS011;30223;17.182;-96.766;2022-08-21T06:57:00;4.22;;;2.55;;
44516;SDS011;30223;17.182;-96.766;2022-08-21T06:59:26;3.55;;;2.60;;
44516;SDS011;30223;17.182;-96.766;2022-08-21T07:01:53;3.15;;;2.70;;
44516;SDS011;30223;17.182;-96.766;2022-08-21T07:04:19;3.92;;;2.58;;
44516;SDS011;30223;17.182;-96.766;2022-08-21T07:06:46;3.97;;;2.40;;
44516;SDS011;30223;17.182;-96.766;2022-08-21T07:09:12;3.60;;;3.08;;
44516;SDS011;30223;17.182;-96.766;2022-08-21T07:11:39;4.03;;;2.75;;
44516;SDS011;30223;17.182;-96.766;2022-08-21T07:14:06;4.80;;;1.92;;
44516;SDS011;30223;17.182;-96.766;2022-08-21T07:16:32;2.78;;;2.25;;
44516;SDS011;30223;17.182;-96.766;2022-08-21T07:18:59;3.80;;;3.15;;
44516;SDS011;30223;17.182;-96.766;2022-08-21T07:21:26;3.15;;;2.35;;
44516;SDS011;30223;17.182;-96.766;2022-08-21T07:23:52;3.90;;;2.90;;
44516;SDS011;30223;17.182;-96.766;2022-08-21T07:26:20;3.10;;;2.33;;
44516;SDS011;30223;17.182;-96.766;2022-08-21T07:28:48;5.32;;;3.00;;
44516;SDS011;30223;17.182;-96.766;2022-08-21T07:31:15;1.95;;;1.67;;
44516;SDS011;30223;17.182;-96.766;2022-08-21T07:33:44;2.97;;;2.70;;
44516;SDS011;30223;17.182;-96.766;2022-08-21T07:36:10;3.65;;;3.00;;
44516;SDS011;30223;17.182;-96.766;2022-08-21T07:38:37;4.88;;;2.83;;
44516;SDS011;30223;17.182;-96.766;2022-08-21T07:41:20;3.33;;;2.00;;
44516;SDS011;30223;17.182;-96.766;2022-08-21T07:43:50;4.25;;;2.45;;
44516;SDS011;30223;17.182;-96.766;2022-08-21T07:46:17;2.78;;;2.25;;
44516;SDS011;30223;17.182;-96.766;2022-08-21T07:48:43;2.05;;;1.85;;
44516;SDS011;30223;17.182;-96.766;2022-08-21T07:51:11;3.38;;;2.40;;
44516;SDS011;30223;17.182;-96.766;2022-08-21T07:53:38;5.20;;;3.88;;
44516;SDS011;30223;17.182;-96.766;2022-08-21T07:56:06;3.15;;;2.30;;
44516;SDS011;30223;17.182;-96.766;2022-08-21T07:58:33;3.35;;;2.85;;
44516;SDS011;30223;17.182;-96.766;2022-08-21T08:01:00;4.22;;;2.03;;
44516;SDS011;30223;17.182;-96.766;2022-08-21T08:03:26;3.78;;;2.35;;
44516;SDS011;30223;17.182;-96.766;2022-08-21T08:05:53;5.30;;;3.10;;
44516;SDS011;30223;17.182;-96.766;2022-08-21T08:08:19;2.28;;;1.83;;
44516;SDS011;30223;17.182;-96.766;2022-08-21T08:10:46;4.32;;;2.42;;
44516;SDS011;30223;17.182;-96.766;2022-08-21T08:13:14;4.18;;;2.35;;
44516;SDS011;30223;17.182;-96.766;2022-08-21T08:15:42;4.20;;;2.38;;
44516;SDS011;30223;17.182;-96.766;2022-08-21T08:18:08;2.88;;;1.92;;
44516;SDS011;30223;17.182;-96.766;2022-08-21T08:20:35;2.65;;;1.83;;
44516;SDS011;30223;17.182;-96.766;2022-08-21T08:23:01;3.92;;;2.05;;
44516;SDS011;30223;17.182;-96.766;2022-08-21T08:25:28;3.10;;;2.65;;
44516;SDS011;30223;17.182;-96.766;2022-08-21T08:27:55;3.60;;;2.50;;
44516;SDS011;30223;17.182;-96.766;2022-08-21T08:30:22;4.00;;;2.00;;
44516;SDS011;30223;17.182;-96.766;2022-08-21T08:32:49;3.58;;;1.75;;
44516;SDS011;30223;17.182;-96.766;2022-08-21T08:35:16;7.22;;;2.28;;
44516;SDS011;30223;17.182;-96.766;2022-08-21T08:37:43;2.65;;;1.90;;
44516;SDS011;30223;17.182;-96.766;2022-08-21T08:40:14;3.15;;;2.60;;
44516;SDS011;30223;17.182;-96.766;2022-08-21T08:43:00;3.47;;;2.08;;
44516;SDS011;30223;17.182;-96.766;2022-08-21T08:45:27;3.65;;;2.53;;
44516;SDS011;30223;17.182;-96.766;2022-08-21T08:48:01;4.97;;;2.08;;
44516;SDS011;30223;17.182;-96.766;2022-08-21T08:50:47;3.00;;;1.95;;
44516;SDS011;30223;17.182;-96.766;2022-08-21T08:53:21;3.15;;;1.88;;
44516;SDS011;30223;17.182;-96.766;2022-08-21T08:55:53;3.72;;;1.65;;
44516;SDS011;30223;17.182;-96.766;2022-08-21T08:58:26;2.80;;;1.95;;
44516;SDS011;30223;17.182;-96.766;2022-08-21T09:01:05;3.55;;;1.80;;
44516;SDS011;30223;17.182;-96.766;2022-08-21T09:03:41;2.75;;;1.40;;
44516;SDS011;30223;17.182;-96.766;2022-08-21T09:06:12;3.15;;;1.67;;
44516;SDS011;30223;17.182;-96.766;2022-08-21T09:08:58;2.78;;;2.08;;
44516;SDS011;30223;17.182;-96.766;2022-08-21T09:12:08;2.58;;;1.85;;
44516;SDS011;30223;17.182;-96.766;2022-08-21T09:14:54;3.08;;;2.00;;
44516;SDS011;30223;17.182;-96.766;2022-08-21T09:25:17;3.38;;;2.47;;
44516;SDS011;30223;17.182;-96.766;2022-08-21T09:28:06;3.53;;;1.90;;
44516;SDS011;30223;17.182;-96.766;2022-08-21T09:30:36;3.05;;;2.33;;
44516;SDS011;30223;17.182;-96.766;2022-08-21T09:33:06;2.33;;;1.70;;
44516;SDS011;30223;17.182;-96.766;2022-08-21T09:35:34;2.10;;;1.50;;
44516;SDS011;30223;17.182;-96.766;2022-08-21T09:38:06;2.58;;;1.90;;
44516;SDS011;30223;17.182;-96.766;2022-08-21T09:40:37;4.65;;;1.50;;
44516;SDS011;30223;17.182;-96.766;2022-08-21T09:45:37;2.20;;;1.80;;
44516;SDS011;30223;17.182;-96.766;2022-08-21T09:48:14;2.90;;;1.75;;
44516;SDS011;30223;17.182;-96.766;2022-08-21T09:50:46;2.83;;;1.90;;
44516;SDS011;30223;17.182;-96.766;2022-08-21T09:53:15;3.20;;;1.63;;
44516;SDS011;30223;17.182;-96.766;2022-08-21T09:55:53;2.45;;;1.58;;
44516;SDS011;30223;17.182;-96.766;2022-08-21T09:58:43;2.15;;;1.80;;
44516;SDS011;30223;17.182;-96.766;2022-08-21T10:01:29;2.17;;;1.63;;
44516;SDS011;30223;17.182;-96.766;2022-08-21T10:04:04;2.35;;;1.70;;
44516;SDS011;30223;17.182;-96.766;2022-08-21T10:06:34;1.63;;;1.30;;
44516;SDS011;30223;17.182;-96.766;2022-08-21T10:11:31;2.22;;;1.60;;
44516;SDS011;30223;17.182;-96.766;2022-08-21T10:22:10;2.90;;;1.92;;
44516;SDS011;30223;17.182;-96.766;2022-08-21T10:30:49;1.50;;;1.40;;
44516;SDS011;30223;17.182;-96.766;2022-08-21T10:36:33;1.70;;;1.60;;
44516;SDS011;30223;17.182;-96.766;2022-08-21T10:42:24;1.83;;;1.42;;
44516;SDS011;30223;17.182;-96.766;2022-08-21T10:47:38;1.90;;;1.73;;
44516;SDS011;30223;17.182;-96.766;2022-08-21T10:55:55;2.95;;;1.90;;
44516;SDS011;30223;17.182;-96.766;2022-08-21T10:58:38;1.63;;;1.38;;
44516;SDS011;30223;17.182;-96.766;2022-08-21T11:01:23;4.80;;;2.40;;
44516;SDS011;30223;17.182;-96.766;2022-08-21T11:03:58;2.28;;;1.92;;
44516;SDS011;30223;17.182;-96.766;2022-08-21T11:06:40;2.08;;;1.65;;
44516;SDS011;30223;17.182;-96.766;2022-08-21T11:09:12;2.40;;;1.48;;
44516;SDS011;30223;17.182;-96.766;2022-08-21T11:11:45;3.55;;;1.98;;
44516;SDS011;30223;17.182;-96.766;2022-08-21T11:17:28;1.65;;;1.30;;
44516;SDS011;30223;17.182;-96.766;2022-08-21T11:20:03;1.67;;;1.30;;
44516;SDS011;30223;17.182;-96.766;2022-08-21T11:28:25;2.38;;;1.63;;
44516;SDS011;30223;17.182;-96.766;2022-08-21T11:36:47;1.50;;;1.40;;
44516;SDS011;30223;17.182;-96.766;2022-08-21T11:50:33;1.60;;;1.17;;
44516;SDS011;30223;17.182;-96.766;2022-08-21T11:55:41;2.67;;;1.60;;
44516;SDS011;30223;17.182;-96.766;2022-08-21T11:58:23;3.60;;;1.35;;
44516;SDS011;30223;17.182;-96.766;2022-08-21T12:01:07;2.92;;;1.77;;
44516;SDS011;30223;17.182;-96.766;2022-08-21T12:03:42;2.15;;;1.50;;
44516;SDS011;30223;17.182;-96.766;2022-08-21T12:06:30;1.85;;;1.52;;
44516;SDS011;30223;17.182;-96.766;2022-08-21T12:09:30;3.10;;;1.90;;
44516;SDS011;30223;17.182;-96.766;2022-08-21T12:12:00;1.40;;;1.30;;
44516;SDS011;30223;17.182;-96.766;2022-08-21T12:14:38;5.25;;;1.40;;
44516;SDS011;30223;17.182;-96.766;2022-08-21T12:17:23;3.08;;;1.17;;
44516;SDS011;30223;17.182;-96.766;2022-08-21T12:20:15;2.95;;;2.40;;
44516;SDS011;30223;17.182;-96.766;2022-08-21T12:22:51;2.05;;;1.20;;
44516;SDS011;30223;17.182;-96.766;2022-08-21T12:26:31;2.08;;;1.38;;
44516;SDS011;30223;17.182;-96.766;2022-08-21T12:28:43;2.55;;;1.58;;
44516;SDS011;30223;17.182;-96.766;2022-08-21T12:31:17;3.38;;;1.35;;
44516;SDS011;30223;17.182;-96.766;2022-08-21T12:33:49;2.60;;;1.70;;
44516;SDS011;30223;17.182;-96.766;2022-08-21T12:36:21;1.70;;;1.27;;
44516;SDS011;30223;17.182;-96.766;2022-08-21T12:41:27;2.30;;;1.33;;
44516;SDS011;30223;17.182;-96.766;2022-08-21T12:44:21;1.65;;;1.50;;
44516;SDS011;30223;17.182;-96.766;2022-08-21T12:47:12;2.92;;;1.40;;
44516;SDS011;30223;17.182;-96.766;2022-08-21T12:50:04;1.38;;;1.27;;
44516;SDS011;30223;17.182;-96.766;2022-08-21T12:52:41;3.65;;;0.90;;
44516;SDS011;30223;17.182;-96.766;2022-08-21T12:55:25;2.47;;;1.50;;
44516;SDS011;30223;17.182;-96.766;2022-08-21T12:57:53;1.40;;;1.05;;
44516;SDS011;30223;17.182;-96.766;2022-08-21T13:00:21;1.95;;;1.63;;
44516;SDS011;30223;17.182;-96.766;2022-08-21T13:02:50;1.92;;;1.10;;
44516;SDS011;30223;17.182;-96.766;2022-08-21T13:05:30;1.42;;;1.05;;
44516;SDS011;30223;17.182;-96.766;2022-08-21T13:08:04;1.52;;;1.25;;
44516;SDS011;30223;17.182;-96.766;2022-08-21T13:10:33;2.08;;;1.45;;
44516;SDS011;30223;17.182;-96.766;2022-08-21T13:13:06;2.85;;;2.03;;
44516;SDS011;30223;17.182;-96.766;2022-08-21T13:15:37;2.15;;;1.00;;
44516;SDS011;30223;17.182;-96.766;2022-08-21T13:18:06;3.45;;;2.15;;
44516;SDS011;30223;17.182;-96.766;2022-08-21T13:20:34;2.00;;;1.42;;
44516;SDS011;30223;17.182;-96.766;2022-08-21T13:23:05;2.65;;;1.35;;
44516;SDS011;30223;17.182;-96.766;2022-08-21T13:25:45;3.50;;;1.38;;
44516;SDS011;30223;17.182;-96.766;2022-08-21T13:28:12;2.00;;;1.52;;
44516;SDS011;30223;17.182;-96.766;2022-08-21T13:30:44;3.05;;;1.80;;
44516;SDS011;30223;17.182;-96.766;2022-08-21T13:33:16;2.15;;;1.90;;
44516;SDS011;30223;17.182;-96.766;2022-08-21T13:35:47;3.85;;;1.77;;
44516;SDS011;30223;17.182;-96.766;2022-08-21T13:38:31;1.95;;;1.27;;
44516;SDS011;30223;17.182;-96.766;2022-08-21T13:41:04;2.65;;;1.13;;
44516;SDS011;30223;17.182;-96.766;2022-08-21T13:43:44;2.05;;;1.40;;
44516;SDS011;30223;17.182;-96.766;2022-08-21T13:46:14;1.98;;;1.83;;
44516;SDS011;30223;17.182;-96.766;2022-08-21T13:48:41;3.15;;;1.35;;
44516;SDS011;30223;17.182;-96.766;2022-08-21T13:51:08;1.70;;;1.33;;
44516;SDS011;30223;17.182;-96.766;2022-08-21T13:53:43;0.93;;;0.82;;
44516;SDS011;30223;17.182;-96.766;2022-08-21T13:56:30;2.08;;;1.50;;
44516;SDS011;30223;17.182;-96.766;2022-08-21T13:58:59;2.35;;;1.88;;
44516;SDS011;30223;17.182;-96.766;2022-08-21T14:01:28;2.13;;;1.83;;
44516;SDS011;30223;17.182;-96.766;2022-08-21T14:04:06;3.28;;;1.20;;
44516;SDS011;30223;17.182;-96.766;2022-08-21T14:06:56;1.95;;;1.38;;
44516;SDS011;30223;17.182;-96.766;2022-08-21T14:11:55;2.25;;;1.50;;
44516;SDS011;30223;17.182;-96.766;2022-08-21T14:14:28;2.22;;;1.45;;
44516;SDS011;30223;17.182;-96.766;2022-08-21T14:16:59;1.98;;;1.52;;
44516;SDS011;30223;17.182;-96.766;2022-08-21T14:19:38;1.95;;;1.40;;
44516;SDS011;30223;17.182;-96.766;2022-08-21T14:25:09;3.05;;;1.98;;
44516;SDS011;30223;17.182;-96.766;2022-08-21T14:27:43;2.88;;;1.80;;
44516;SDS011;30223;17.182;-96.766;2022-08-21T14:32:53;1.98;;;1.58;;
44516;SDS011;30223;17.182;-96.766;2022-08-21T14:35:20;3.13;;;2.13;;
44516;SDS011;30223;17.182;-96.766;2022-08-21T14:37:48;1.70;;;1.20;;
44516;SDS011;30223;17.182;-96.766;2022-08-21T14:40:20;1.88;;;1.30;;
44516;SDS011;30223;17.182;-96.766;2022-08-21T14:45:20;2.95;;;1.40;;
44516;SDS011;30223;17.182;-96.766;2022-08-21T14:47:52;1.65;;;1.45;;
44516;SDS011;30223;17.182;-96.766;2022-08-21T14:50:18;1.92;;;1.70;;
44516;SDS011;30223;17.182;-96.766;2022-08-21T14:52:45;3.30;;;1.63;;
44516;SDS011;30223;17.182;-96.766;2022-08-21T14:55:13;1.50;;;1.23;;
44516;SDS011;30223;17.182;-96.766;2022-08-21T14:57:41;1.95;;;1.25;;
44516;SDS011;30223;17.182;-96.766;2022-08-21T15:00:10;1.70;;;1.20;;
44516;SDS011;30223;17.182;-96.766;2022-08-21T15:02:39;2.45;;;2.17;;
44516;SDS011;30223;17.182;-96.766;2022-08-21T15:05:06;2.20;;;1.65;;
44516;SDS011;30223;17.182;-96.766;2022-08-21T15:07:33;1.98;;;1.45;;
44516;SDS011;30223;17.182;-96.766;2022-08-21T15:09:59;2.45;;;1.80;;
44516;SDS011;30223;17.182;-96.766;2022-08-21T15:12:26;3.28;;;2.05;;
44516;SDS011;30223;17.182;-96.766;2022-08-21T15:14:53;2.65;;;1.48;;
44516;SDS011;30223;17.182;-96.766;2022-08-21T15:17:19;2.55;;;1.50;;
44516;SDS011;30223;17.182;-96.766;2022-08-21T15:19:46;2.60;;;1.75;;
44516;SDS011;30223;17.182;-96.766;2022-08-21T15:22:13;2.38;;;1.95;;
44516;SDS011;30223;17.182;-96.766;2022-08-21T15:24:39;2.13;;;1.55;;
44516;SDS011;30223;17.182;-96.766;2022-08-21T15:27:06;2.70;;;1.50;;
44516;SDS011;30223;17.182;-96.766;2022-08-21T15:29:34;3.53;;;1.88;;
44516;SDS011;30223;17.182;-96.766;2022-08-21T15:32:22;2.35;;;1.85;;
44516;SDS011;30223;17.182;-96.766;2022-08-21T15:34:50;2.42;;;1.55;;
44516;SDS011;30223;17.182;-96.766;2022-08-21T15:37:17;1.70;;;1.52;;
44516;SDS011;30223;17.182;-96.766;2022-08-21T15:39:45;2.42;;;1.90;;
44516;SDS011;30223;17.182;-96.766;2022-08-21T15:42:11;2.38;;;1.45;;
44516;SDS011;30223;17.182;-96.766;2022-08-21T15:44:39;2.63;;;2.38;;
44516;SDS011;30223;17.182;-96.766;2022-08-21T15:47:09;3.95;;;1.42;;
44516;SDS011;30223;17.182;-96.766;2022-08-21T15:49:39;2.22;;;1.77;;
44516;SDS011;30223;17.182;-96.766;2022-08-21T15:52:10;2.13;;;1.92;;
44516;SDS011;30223;17.182;-96.766;2022-08-21T15:54:41;2.20;;;1.90;;
44516;SDS011;30223;17.182;-96.766;2022-08-21T15:57:09;2.28;;;1.67;;
44516;SDS011;30223;17.182;-96.766;2022-08-21T15:59:42;3.17;;;2.25;;
44516;SDS011;30223;17.182;-96.766;2022-08-21T16:02:30;2.90;;;1.67;;
44516;SDS011;30223;17.182;-96.766;2022-08-21T16:04:57;2.75;;;1.92;;
44516;SDS011;30223;17.182;-96.766;2022-08-21T16:07:24;2.85;;;1.80;;
44516;SDS011;30223;17.182;-96.766;2022-08-21T16:09:51;3.20;;;1.80;;
44516;SDS011;30223;17.182;-96.766;2022-08-21T16:12:25;3.65;;;1.70;;
44516;SDS011;30223;17.182;-96.766;2022-08-21T16:14:59;1.98;;;1.73;;